createdAt,value
2022-12-08T00:00:34.978Z,39.79
2022-12-08T00:05:55.577Z,38.80
2022-12-08T00:10:58.009Z,39.01
2022-12-08T00:16:00.977Z,38.71
2022-12-08T00:21:03.649Z,39.08
2022-12-08T00:26:05.964Z,39.01
2022-12-08T00:31:10.282Z,38.62
2022-12-08T00:36:14.427Z,38.94
2022-12-08T00:41:40.187Z,38.90
2022-12-08T00:46:43.048Z,39.64
2022-12-08T00:51:45.090Z,39.65
2022-12-08T00:56:47.065Z,39.78
2022-12-08T01:01:49.212Z,39.78
2022-12-08T01:06:51.950Z,39.37
2022-12-08T01:11:53.947Z,38.78
2022-12-08T01:16:56.047Z,38.38
2022-12-08T01:21:57.995Z,39.64
2022-12-08T01:26:59.941Z,38.23
2022-12-08T01:32:02.107Z,38.35
2022-12-08T01:37:04.099Z,39.35
2022-12-08T01:42:06.144Z,38.91
2022-12-08T01:47:08.906Z,39.08
2022-12-08T01:52:28.811Z,38.67
2022-12-08T01:58:00.748Z,38.86
2022-12-08T02:03:07.129Z,38.42
2022-12-08T02:08:12.801Z,38.52
2022-12-08T02:13:17.966Z,38.81
2022-12-08T02:18:22.544Z,38.89
2022-12-08T02:23:50.583Z,38.15
2022-12-08T02:29:05.274Z,37.56
2022-12-08T02:34:28.568Z,38.58
2022-12-08T02:39:47.079Z,39.01
2022-12-08T02:44:57.352Z,39.04
2022-12-08T02:49:59.303Z,39.45
2022-12-08T02:55:11.911Z,38.17
2022-12-08T03:00:48.823Z,39.08
2022-12-08T03:05:53.928Z,38.70
2022-12-08T03:11:15.246Z,38.78
2022-12-08T03:16:23.883Z,39.29
2022-12-08T03:21:27.004Z,41.07
2022-12-08T03:26:43.404Z,41.81
2022-12-08T03:31:58.227Z,41.20
2022-12-08T03:37:02.283Z,40.43
2022-12-08T03:42:04.306Z,40.74
2022-12-08T03:47:06.287Z,40.21
2022-12-08T03:52:08.241Z,39.44
2022-12-08T03:57:10.235Z,38.74
2022-12-08T04:02:12.258Z,38.08
2022-12-08T04:07:14.234Z,37.55
2022-12-08T04:12:16.329Z,36.72
2022-12-08T04:17:18.231Z,36.56
2022-12-08T04:22:20.200Z,38.01
2022-12-08T04:27:22.383Z,42.83
2022-12-08T04:32:24.300Z,43.78
2022-12-08T04:37:26.238Z,40.73
2022-12-08T04:42:28.231Z,41.61
2022-12-08T04:47:30.257Z,40.38
2022-12-08T04:52:32.414Z,41.52
2022-12-08T04:57:34.677Z,42.66
2022-12-08T05:02:37.701Z,40.51
2022-12-08T05:07:39.849Z,39.75
2022-12-08T05:12:42.040Z,38.76
2022-12-08T05:17:44.039Z,39.01
2022-12-08T05:22:46.009Z,38.17
2022-12-08T05:27:48.052Z,37.81
2022-12-08T05:32:50.197Z,37.55
2022-12-08T05:37:54.019Z,37.59
2022-12-08T05:42:56.037Z,37.74
2022-12-08T05:47:58.110Z,37.36
2022-12-08T05:53:00.101Z,37.28
2022-12-08T05:58:11.973Z,38.49
2022-12-08T06:03:19.826Z,38.58
2022-12-08T06:08:21.999Z,38.13
2022-12-08T06:13:24.229Z,37.44
2022-12-08T06:18:31.151Z,38.25
2022-12-08T06:23:35.413Z,37.98
2022-12-08T06:28:38.036Z,37.70
2022-12-08T06:33:40.002Z,37.80
2022-12-08T06:38:43.784Z,37.49
2022-12-08T06:43:46.297Z,38.11
2022-12-08T06:48:48.952Z,37.78
2022-12-08T06:53:50.924Z,37.80
2022-12-08T06:58:53.278Z,39.69
2022-12-08T07:03:55.349Z,38.83
2022-12-08T07:08:57.278Z,38.27
2022-12-08T07:13:59.308Z,38.22
2022-12-08T07:19:01.498Z,37.91
2022-12-08T07:24:03.529Z,37.90
2022-12-08T07:29:05.622Z,39.06
2022-12-08T07:34:07.702Z,38.56
2022-12-08T07:39:09.730Z,38.94
2022-12-08T07:44:11.720Z,38.58
2022-12-08T07:49:14.028Z,38.19
2022-12-08T07:54:16.000Z,38.39
2022-12-08T07:59:17.956Z,38.33
2022-12-08T08:04:19.979Z,38.37
2022-12-08T08:09:21.963Z,38.14
2022-12-08T08:14:24.018Z,38.29
2022-12-08T08:19:26.030Z,38.95
2022-12-08T08:24:27.969Z,38.83
2022-12-08T08:29:29.923Z,38.21
2022-12-08T08:34:32.677Z,38.85
2022-12-08T08:39:35.510Z,38.38
2022-12-08T08:44:39.042Z,38.67
2022-12-08T08:49:42.064Z,38.82
2022-12-08T08:54:44.024Z,41.24
2022-12-08T08:59:45.936Z,42.35
2022-12-08T09:04:48.417Z,40.40
2022-12-08T09:09:51.235Z,41.05
2022-12-08T09:14:53.289Z,40.95
2022-12-08T09:19:56.016Z,41.03
2022-12-08T09:24:57.994Z,42.08
2022-12-08T09:29:59.966Z,42.26
2022-12-08T09:35:01.895Z,42.45
2022-12-08T09:40:07.419Z,42.09
2022-12-08T09:45:16.355Z,41.78
2022-12-08T09:50:30.190Z,45.58
2022-12-08T09:55:52.270Z,45.83
2022-12-08T10:00:55.279Z,44.12
2022-12-08T10:06:12.458Z,43.95
2022-12-08T10:11:26.700Z,43.04
2022-12-08T10:16:41.895Z,41.80
2022-12-08T10:21:45.532Z,45.39
2022-12-08T10:26:49.554Z,42.02
2022-12-08T10:31:51.576Z,41.62
2022-12-08T10:36:57.844Z,47.20
2022-12-08T10:42:15.094Z,48.26
2022-12-08T10:47:21.839Z,49.20
2022-12-08T10:52:25.088Z,54.80
2022-12-08T10:57:27.081Z,48.59
2022-12-08T11:02:29.111Z,54.60
2022-12-08T11:07:31.144Z,53.82
2022-12-08T11:12:33.525Z,55.87
2022-12-08T11:17:40.585Z,51.84
2022-12-08T11:22:44.830Z,52.88
2022-12-08T11:27:49.669Z,50.58
2022-12-08T11:32:57.375Z,52.81
2022-12-08T11:38:22.293Z,50.47
2022-12-08T11:44:03.395Z,47.18
2022-12-08T11:49:11.151Z,49.63
2022-12-08T11:54:28.895Z,51.35
2022-12-08T11:59:46.132Z,52.14
2022-12-08T12:05:02.874Z,49.89
2022-12-08T12:10:39.745Z,48.71
2022-12-08T12:16:03.123Z,44.53
2022-12-08T12:21:18.448Z,44.41
2022-12-08T12:26:24.135Z,47.04
2022-12-08T12:31:33.851Z,46.75
2022-12-08T12:36:52.425Z,41.93
2022-12-08T12:41:58.272Z,46.56
2022-12-08T12:47:02.291Z,48.60
2022-12-08T12:52:10.239Z,45.15
2022-12-08T12:57:12.091Z,46.56
2022-12-08T13:02:31.239Z,48.12
2022-12-08T13:07:41.079Z,47.75
2022-12-08T13:12:44.852Z,43.71
2022-12-08T13:17:49.313Z,42.08
2022-12-08T13:22:54.075Z,39.61
2022-12-08T13:27:56.020Z,37.89
2022-12-08T13:33:18.737Z,38.21
2022-12-08T13:38:26.451Z,37.39
2022-12-08T13:43:55.635Z,37.79
2022-12-08T13:50:49.572Z,36.40
2022-12-08T14:00:02.777Z,34.78
2022-12-08T14:05:18.701Z,34.90
2022-12-08T14:10:31.971Z,34.91
2022-12-08T14:15:38.361Z,33.28
2022-12-08T14:21:11.962Z,33.71
2022-12-08T14:26:06.556Z,36.05
2022-12-08T14:31:08.725Z,36.80
2022-12-08T14:36:14.632Z,34.67
2022-12-08T14:41:16.584Z,34.02
2022-12-08T14:46:23.512Z,34.74
2022-12-08T14:51:33.315Z,41.13
2022-12-08T14:56:41.199Z,38.86
2022-12-08T15:01:44.556Z,38.77
2022-12-08T15:07:21.457Z,37.13
2022-12-08T15:12:27.410Z,35.92
2022-12-08T15:17:32.078Z,36.65
2022-12-08T15:22:34.031Z,36.13
2022-12-08T15:27:46.942Z,37.26
2022-12-08T15:32:54.171Z,34.77
2022-12-08T15:37:56.347Z,37.07
2022-12-08T15:42:58.244Z,34.70
2022-12-08T15:48:00.983Z,36.82
2022-12-08T15:53:02.983Z,34.81
2022-12-08T15:58:51.795Z,35.55
2022-12-08T16:09:00.640Z,35.19
2022-12-08T16:14:48.708Z,35.16
2022-12-08T16:19:34.828Z,33.99
2022-12-08T16:24:36.789Z,38.80
2022-12-08T16:29:38.948Z,36.44
2022-12-08T16:34:41.531Z,36.59
2022-12-08T16:39:45.984Z,35.47
2022-12-08T16:44:48.220Z,36.59
2022-12-08T16:49:50.124Z,35.18
2022-12-08T16:54:52.191Z,35.66
2022-12-08T16:59:54.193Z,35.13
2022-12-08T17:04:56.224Z,35.83
2022-12-08T17:09:58.871Z,36.84
2022-12-08T17:15:03.118Z,37.54
2022-12-08T17:20:08.399Z,36.66
2022-12-08T17:25:11.021Z,35.19
2022-12-08T17:30:15.721Z,35.86
2022-12-08T17:35:17.878Z,35.37
2022-12-08T17:40:19.891Z,35.97
2022-12-08T17:45:21.863Z,36.02
2022-12-08T17:50:23.858Z,35.06
2022-12-08T17:55:25.859Z,35.55
2022-12-08T18:00:28.173Z,36.34
2022-12-08T18:05:31.091Z,36.11
2022-12-08T18:10:33.144Z,36.24
2022-12-08T18:15:39.205Z,36.91
2022-12-08T18:20:41.457Z,36.50
2022-12-08T18:25:44.116Z,37.08
2022-12-08T18:30:46.338Z,37.15
2022-12-08T18:35:48.473Z,38.22
2022-12-08T18:40:50.475Z,36.49
2022-12-08T18:46:01.483Z,37.52
2022-12-08T18:51:04.148Z,36.84
2022-12-08T18:56:09.724Z,37.00
2022-12-08T19:01:15.678Z,37.46
2022-12-08T19:06:20.011Z,36.60
2022-12-08T19:11:25.632Z,37.14
2022-12-08T19:16:27.885Z,36.85
2022-12-08T19:21:30.605Z,38.19
2022-12-08T19:26:32.865Z,37.54
2022-12-08T19:31:35.170Z,37.02
2022-12-08T19:36:42.331Z,38.37
2022-12-08T19:42:03.747Z,37.54
2022-12-08T19:47:05.994Z,36.22
2022-12-08T19:52:08.681Z,35.20
2022-12-08T19:57:11.653Z,37.11
2022-12-08T20:02:13.765Z,38.03
2022-12-08T20:07:15.868Z,37.22
2022-12-08T20:12:17.932Z,36.48
2022-12-08T20:17:20.946Z,35.79
2022-12-08T20:22:23.032Z,36.58
2022-12-08T20:27:25.452Z,35.27
2022-12-08T20:32:27.583Z,34.92
2022-12-08T20:37:29.578Z,36.90
2022-12-08T20:42:31.707Z,46.84
2022-12-08T20:47:33.718Z,43.16
2022-12-08T20:52:37.912Z,40.67
2022-12-08T20:57:40.171Z,43.16
2022-12-08T21:02:48.640Z,41.23
2022-12-08T21:07:51.912Z,39.84
2022-12-08T21:12:54.143Z,38.12
2022-12-08T21:17:56.266Z,38.63
2022-12-08T21:22:58.286Z,39.16
2022-12-08T21:28:00.598Z,42.48
2022-12-08T21:33:02.949Z,39.11
2022-12-08T21:38:06.772Z,39.25
2022-12-08T21:43:08.796Z,39.38
2022-12-08T21:48:11.913Z,41.09
2022-12-08T21:53:14.063Z,40.83
2022-12-08T21:58:16.159Z,39.76
2022-12-08T22:03:18.380Z,39.14
2022-12-08T22:08:20.702Z,42.80
2022-12-08T22:13:22.949Z,50.87
2022-12-08T22:18:25.449Z,42.89
2022-12-08T22:23:28.829Z,44.40
2022-12-08T22:28:36.970Z,47.88
2022-12-08T22:33:40.403Z,45.68
2022-12-08T22:38:42.530Z,41.91
2022-12-08T22:43:45.419Z,41.05
2022-12-08T22:48:48.247Z,41.76
2022-12-08T22:53:51.105Z,40.29
2022-12-08T22:58:53.339Z,40.67
2022-12-08T23:03:56.031Z,51.78
2022-12-08T23:08:58.552Z,46.57
2022-12-08T23:14:01.072Z,47.38
2022-12-08T23:19:03.167Z,44.34
2022-12-08T23:24:05.665Z,44.85
2022-12-08T23:29:07.725Z,44.07
2022-12-08T23:34:10.823Z,41.58
2022-12-08T23:39:13.223Z,43.97
2022-12-08T23:44:15.377Z,41.61
2022-12-08T23:49:17.618Z,43.70
2022-12-08T23:54:19.673Z,43.75
2022-12-08T23:59:22.133Z,42.83
